sensor_id;sensor_type;location;lat;lon;timestamp;P1;durP1;ratioP1;P2;durP2;ratioP2
12474;SDS011;6302;42.624;23.334;2023-08-01T00:00:18;2.73;;;2.53;;
12474;SDS011;6302;42.624;23.334;2023-08-01T00:02:44;2.83;;;2.63;;
12474;SDS011;6302;42.624;23.334;2023-08-01T00:05:13;2.33;;;2.13;;
12474;SDS011;6302;42.624;23.334;2023-08-01T00:07:39;2.33;;;2.23;;
12474;SDS011;6302;42.624;23.334;2023-08-01T00:10:09;2.60;;;2.40;;
12474;SDS011;6302;42.624;23.334;2023-08-01T00:12:36;2.67;;;2.47;;
12474;SDS011;6302;42.624;23.334;2023-08-01T00:15:06;2.40;;;2.20;;
12474;SDS011;6302;42.624;23.334;2023-08-01T00:17:36;2.53;;;2.23;;
12474;SDS011;6302;42.624;23.334;2023-08-01T00:20:02;2.70;;;2.50;;
12474;SDS011;6302;42.624;23.334;2023-08-01T00:22:34;3.80;;;2.50;;
12474;SDS011;6302;42.624;23.334;2023-08-01T00:25:02;2.60;;;2.47;;
12474;SDS011;6302;42.624;23.334;2023-08-01T00:27:30;2.70;;;2.50;;
12474;SDS011;6302;42.624;23.334;2023-08-01T00:29:57;3.10;;;2.80;;
12474;SDS011;6302;42.624;23.334;2023-08-01T00:32:24;2.90;;;2.50;;
12474;SDS011;6302;42.624;23.334;2023-08-01T00:34:50;3.13;;;2.83;;
12474;SDS011;6302;42.624;23.334;2023-08-01T00:37:17;2.30;;;2.20;;
12474;SDS011;6302;42.624;23.334;2023-08-01T00:39:47;3.23;;;2.40;;
12474;SDS011;6302;42.624;23.334;2023-08-01T00:42:17;4.00;;;2.70;;
12474;SDS011;6302;42.624;23.334;2023-08-01T00:44:48;4.43;;;2.87;;
12474;SDS011;6302;42.624;23.334;2023-08-01T00:47:16;3.13;;;2.80;;
12474;SDS011;6302;42.624;23.334;2023-08-01T00:49:43;2.90;;;2.70;;
12474;SDS011;6302;42.624;23.334;2023-08-01T00:52:10;4.37;;;3.03;;
12474;SDS011;6302;42.624;23.334;2023-08-01T00:54:37;2.70;;;2.50;;
12474;SDS011;6302;42.624;23.334;2023-08-01T00:57:06;3.17;;;2.70;;
12474;SDS011;6302;42.624;23.334;2023-08-01T00:59:33;3.13;;;2.83;;
12474;SDS011;6302;42.624;23.334;2023-08-01T01:02:00;3.37;;;2.83;;
12474;SDS011;6302;42.624;23.334;2023-08-01T01:04:27;3.87;;;2.73;;
12474;SDS011;6302;42.624;23.334;2023-08-01T01:06:57;3.20;;;3.00;;
12474;SDS011;6302;42.624;23.334;2023-08-01T01:09:28;2.87;;;2.67;;
12474;SDS011;6302;42.624;23.334;2023-08-01T01:11:57;3.57;;;2.93;;
12474;SDS011;6302;42.624;23.334;2023-08-01T01:14:25;3.10;;;2.90;;
12474;SDS011;6302;42.624;23.334;2023-08-01T01:16:52;2.80;;;2.60;;
12474;SDS011;6302;42.624;23.334;2023-08-01T01:19:19;2.57;;;2.37;;
12474;SDS011;6302;42.624;23.334;2023-08-01T01:21:47;4.87;;;2.90;;
12474;SDS011;6302;42.624;23.334;2023-08-01T01:24:14;3.00;;;2.80;;
12474;SDS011;6302;42.624;23.334;2023-08-01T01:26:43;3.97;;;2.80;;
12474;SDS011;6302;42.624;23.334;2023-08-01T01:29:12;3.87;;;3.07;;
12474;SDS011;6302;42.624;23.334;2023-08-01T01:31:40;3.00;;;2.50;;
12474;SDS011;6302;42.624;23.334;2023-08-01T01:34:08;3.57;;;2.67;;
12474;SDS011;6302;42.624;23.334;2023-08-01T01:36:35;3.00;;;2.80;;
12474;SDS011;6302;42.624;23.334;2023-08-01T01:39:03;3.03;;;2.73;;
12474;SDS011;6302;42.624;23.334;2023-08-01T01:41:30;3.20;;;2.90;;
12474;SDS011;6302;42.624;23.334;2023-08-01T01:43:57;3.13;;;2.83;;
12474;SDS011;6302;42.624;23.334;2023-08-01T01:46:23;4.60;;;2.73;;
12474;SDS011;6302;42.624;23.334;2023-08-01T01:48:49;3.20;;;2.90;;
12474;SDS011;6302;42.624;23.334;2023-08-01T01:51:16;3.77;;;2.87;;
12474;SDS011;6302;42.624;23.334;2023-08-01T01:53:43;3.40;;;3.13;;
12474;SDS011;6302;42.624;23.334;2023-08-01T01:56:11;2.90;;;2.70;;
12474;SDS011;6302;42.624;23.334;2023-08-01T01:58:38;3.93;;;3.00;;
12474;SDS011;6302;42.624;23.334;2023-08-01T02:01:04;3.20;;;2.70;;
12474;SDS011;6302;42.624;23.334;2023-08-01T02:03:31;3.13;;;2.90;;
12474;SDS011;6302;42.624;23.334;2023-08-01T02:05:58;2.97;;;2.67;;
12474;SDS011;6302;42.624;23.334;2023-08-01T02:08:25;3.27;;;2.77;;
12474;SDS011;6302;42.624;23.334;2023-08-01T02:10:51;2.90;;;2.70;;
12474;SDS011;6302;42.624;23.334;2023-08-01T02:13:21;3.07;;;2.87;;
12474;SDS011;6302;42.624;23.334;2023-08-01T02:15:48;2.87;;;2.57;;
12474;SDS011;6302;42.624;23.334;2023-08-01T02:18:15;3.00;;;2.73;;
12474;SDS011;6302;42.624;23.334;2023-08-01T02:20:41;2.97;;;2.50;;
12474;SDS011;6302;42.624;23.334;2023-08-01T02:23:08;3.07;;;2.80;;
12474;SDS011;6302;42.624;23.334;2023-08-01T02:25:38;3.30;;;3.00;;
12474;SDS011;6302;42.624;23.334;2023-08-01T02:28:04;2.80;;;2.60;;
12474;SDS011;6302;42.624;23.334;2023-08-01T02:30:33;2.80;;;2.60;;
12474;SDS011;6302;42.624;23.334;2023-08-01T02:33:00;2.97;;;2.77;;
12474;SDS011;6302;42.624;23.334;2023-08-01T02:35:27;3.17;;;2.87;;
12474;SDS011;6302;42.624;23.334;2023-08-01T02:37:54;3.33;;;3.03;;
12474;SDS011;6302;42.624;23.334;2023-08-01T02:40:21;3.53;;;2.87;;
12474;SDS011;6302;42.624;23.334;2023-08-01T02:42:48;3.23;;;3.03;;
12474;SDS011;6302;42.624;23.334;2023-08-01T02:45:15;3.20;;;2.90;;
12474;SDS011;6302;42.624;23.334;2023-08-01T02:47:43;2.90;;;2.70;;
12474;SDS011;6302;42.624;23.334;2023-08-01T02:50:10;3.67;;;3.00;;
12474;SDS011;6302;42.624;23.334;2023-08-01T02:52:37;2.60;;;2.40;;
12474;SDS011;6302;42.624;23.334;2023-08-01T02:55:04;3.17;;;2.87;;
12474;SDS011;6302;42.624;23.334;2023-08-01T02:57:31;2.97;;;2.77;;
12474;SDS011;6302;42.624;23.334;2023-08-01T02:59:58;3.13;;;2.90;;
12474;SDS011;6302;42.624;23.334;2023-08-01T03:02:24;2.80;;;2.60;;
12474;SDS011;6302;42.624;23.334;2023-08-01T03:04:54;3.90;;;2.90;;
12474;SDS011;6302;42.624;23.334;2023-08-01T03:07:21;2.90;;;2.70;;
12474;SDS011;6302;42.624;23.334;2023-08-01T03:09:47;3.00;;;2.80;;
12474;SDS011;6302;42.624;23.334;2023-08-01T03:12:15;4.60;;;2.50;;
12474;SDS011;6302;42.624;23.334;2023-08-01T03:14:41;3.37;;;3.00;;
12474;SDS011;6302;42.624;23.334;2023-08-01T03:17:09;5.47;;;2.90;;
12474;SDS011;6302;42.624;23.334;2023-08-01T03:19:37;3.20;;;2.90;;
12474;SDS011;6302;42.624;23.334;2023-08-01T03:22:05;3.00;;;2.80;;
12474;SDS011;6302;42.624;23.334;2023-08-01T03:24:32;2.73;;;2.53;;
12474;SDS011;6302;42.624;23.334;2023-08-01T03:26:59;2.90;;;2.70;;
12474;SDS011;6302;42.624;23.334;2023-08-01T03:29:26;2.80;;;2.60;;
12474;SDS011;6302;42.624;23.334;2023-08-01T03:31:53;3.10;;;2.63;;
12474;SDS011;6302;42.624;23.334;2023-08-01T03:34:19;2.90;;;2.67;;
12474;SDS011;6302;42.624;23.334;2023-08-01T03:36:46;2.90;;;2.70;;
12474;SDS011;6302;42.624;23.334;2023-08-01T03:39:14;3.03;;;2.63;;
12474;SDS011;6302;42.624;23.334;2023-08-01T03:41:41;4.07;;;2.97;;
12474;SDS011;6302;42.624;23.334;2023-08-01T03:44:08;3.37;;;2.70;;
12474;SDS011;6302;42.624;23.334;2023-08-01T03:46:35;3.27;;;2.50;;
12474;SDS011;6302;42.624;23.334;2023-08-01T03:49:01;2.90;;;2.60;;
12474;SDS011;6302;42.624;23.334;2023-08-01T03:51:28;4.33;;;2.73;;
12474;SDS011;6302;42.624;23.334;2023-08-01T03:53:55;3.10;;;2.80;;
12474;SDS011;6302;42.624;23.334;2023-08-01T03:56:23;4.23;;;2.97;;
12474;SDS011;6302;42.624;23.334;2023-08-01T03:58:50;3.33;;;2.97;;
12474;SDS011;6302;42.624;23.334;2023-08-01T04:01:16;3.00;;;2.77;;
12474;SDS011;6302;42.624;23.334;2023-08-01T04:03:43;3.63;;;2.93;;
12474;SDS011;6302;42.624;23.334;2023-08-01T04:06:10;3.03;;;2.73;;
12474;SDS011;6302;42.624;23.334;2023-08-01T04:08:40;2.97;;;2.70;;
12474;SDS011;6302;42.624;23.334;2023-08-01T04:11:07;3.57;;;3.27;;
12474;SDS011;6302;42.624;23.334;2023-08-01T04:13:35;4.77;;;3.33;;
12474;SDS011;6302;42.624;23.334;2023-08-01T04:16:01;4.33;;;3.93;;
12474;SDS011;6302;42.624;23.334;2023-08-01T04:18:28;5.47;;;3.70;;
12474;SDS011;6302;42.624;23.334;2023-08-01T04:20:55;6.97;;;4.53;;
12474;SDS011;6302;42.624;23.334;2023-08-01T04:23:22;5.47;;;4.97;;
12474;SDS011;6302;42.624;23.334;2023-08-01T04:25:49;6.07;;;5.50;;
12474;SDS011;6302;42.624;23.334;2023-08-01T04:28:15;5.77;;;5.17;;
12474;SDS011;6302;42.624;23.334;2023-08-01T04:30:48;7.80;;;5.10;;
12474;SDS011;6302;42.624;23.334;2023-08-01T04:33:15;7.13;;;4.67;;
12474;SDS011;6302;42.624;23.334;2023-08-01T04:35:42;6.63;;;4.53;;
12474;SDS011;6302;42.624;23.334;2023-08-01T04:38:09;6.17;;;4.93;;
12474;SDS011;6302;42.624;23.334;2023-08-01T04:40:36;6.00;;;5.43;;
12474;SDS011;6302;42.624;23.334;2023-08-01T04:43:03;6.63;;;4.83;;
12474;SDS011;6302;42.624;23.334;2023-08-01T04:45:30;7.97;;;5.50;;
12474;SDS011;6302;42.624;23.334;2023-08-01T04:47:58;6.77;;;5.40;;
12474;SDS011;6302;42.624;23.334;2023-08-01T04:50:25;6.67;;;5.37;;
12474;SDS011;6302;42.624;23.334;2023-08-01T04:52:52;8.40;;;4.97;;
12474;SDS011;6302;42.624;23.334;2023-08-01T04:55:18;7.70;;;4.30;;
12474;SDS011;6302;42.624;23.334;2023-08-01T04:57:45;4.33;;;3.93;;
12474;SDS011;6302;42.624;23.334;2023-08-01T05:00:12;4.03;;;3.73;;
12474;SDS011;6302;42.624;23.334;2023-08-01T05:02:40;3.80;;;3.50;;
12474;SDS011;6302;42.624;23.334;2023-08-01T05:05:08;8.57;;;4.07;;
12474;SDS011;6302;42.624;23.334;2023-08-01T05:07:35;5.50;;;3.83;;
12474;SDS011;6302;42.624;23.334;2023-08-01T05:10:02;6.20;;;3.57;;
12474;SDS011;6302;42.624;23.334;2023-08-01T05:12:29;4.90;;;3.70;;
12474;SDS011;6302;42.624;23.334;2023-08-01T05:14:56;4.23;;;3.40;;
12474;SDS011;6302;42.624;23.334;2023-08-01T05:17:22;3.40;;;3.10;;
12474;SDS011;6302;42.624;23.334;2023-08-01T05:19:49;3.80;;;3.47;;
12474;SDS011;6302;42.624;23.334;2023-08-01T05:22:17;3.73;;;3.43;;
12474;SDS011;6302;42.624;23.334;2023-08-01T05:24:44;3.97;;;3.30;;
12474;SDS011;6302;42.624;23.334;2023-08-01T05:27:11;6.07;;;3.80;;
12474;SDS011;6302;42.624;23.334;2023-08-01T05:29:38;3.83;;;3.40;;
12474;SDS011;6302;42.624;23.334;2023-08-01T05:32:05;4.00;;;3.70;;
12474;SDS011;6302;42.624;23.334;2023-08-01T05:34:32;5.20;;;4.00;;
12474;SDS011;6302;42.624;23.334;2023-08-01T05:36:59;8.73;;;3.67;;
12474;SDS011;6302;42.624;23.334;2023-08-01T05:39:27;4.23;;;3.53;;
12474;SDS011;6302;42.624;23.334;2023-08-01T05:41:54;5.77;;;4.00;;
12474;SDS011;6302;42.624;23.334;2023-08-01T05:44:21;6.47;;;4.07;;
12474;SDS011;6302;42.624;23.334;2023-08-01T05:46:48;3.80;;;3.50;;
12474;SDS011;6302;42.624;23.334;2023-08-01T05:49:14;3.93;;;3.60;;
12474;SDS011;6302;42.624;23.334;2023-08-01T05:51:41;4.30;;;3.60;;
12474;SDS011;6302;42.624;23.334;2023-08-01T05:54:08;6.00;;;4.03;;
12474;SDS011;6302;42.624;23.334;2023-08-01T05:56:36;5.87;;;3.33;;
12474;SDS011;6302;42.624;23.334;2023-08-01T05:59:03;4.70;;;3.57;;
12474;SDS011;6302;42.624;23.334;2023-08-01T06:01:30;5.67;;;3.37;;
12474;SDS011;6302;42.624;23.334;2023-08-01T06:03:56;6.50;;;4.00;;
12474;SDS011;6302;42.624;23.334;2023-08-01T06:06:23;5.33;;;3.60;;
12474;SDS011;6302;42.624;23.334;2023-08-01T06:08:50;3.40;;;3.10;;
12474;SDS011;6302;42.624;23.334;2023-08-01T06:11:17;7.10;;;4.00;;
12474;SDS011;6302;42.624;23.334;2023-08-01T06:13:45;5.20;;;3.73;;
12474;SDS011;6302;42.624;23.334;2023-08-01T06:16:12;4.47;;;3.70;;
12474;SDS011;6302;42.624;23.334;2023-08-01T06:18:39;5.23;;;3.47;;
12474;SDS011;6302;42.624;23.334;2023-08-01T06:21:05;3.70;;;3.33;;
12474;SDS011;6302;42.624;23.334;2023-08-01T06:23:32;6.10;;;3.17;;
12474;SDS011;6302;42.624;23.334;2023-08-01T06:25:59;4.13;;;2.77;;
12474;SDS011;6302;42.624;23.334;2023-08-01T06:28:26;3.73;;;2.60;;
12474;SDS011;6302;42.624;23.334;2023-08-01T06:31:02;3.17;;;2.87;;
12474;SDS011;6302;42.624;23.334;2023-08-01T06:33:29;7.37;;;2.97;;
12474;SDS011;6302;42.624;23.334;2023-08-01T06:35:56;5.13;;;2.73;;
12474;SDS011;6302;42.624;23.334;2023-08-01T06:38:23;4.27;;;2.57;;
12474;SDS011;6302;42.624;23.334;2023-08-01T06:40:50;4.27;;;2.37;;
12474;SDS011;6302;42.624;23.334;2023-08-01T06:43:17;5.90;;;3.00;;
12474;SDS011;6302;42.624;23.334;2023-08-01T06:45:43;4.27;;;3.07;;
12474;SDS011;6302;42.624;23.334;2023-08-01T06:48:12;5.32;;;2.60;;
12474;SDS011;6302;42.624;23.334;2023-08-01T06:50:38;3.70;;;2.67;;
12474;SDS011;6302;42.624;23.334;2023-08-01T06:53:05;6.37;;;3.00;;
12474;SDS011;6302;42.624;23.334;2023-08-01T06:55:33;5.47;;;3.00;;
12474;SDS011;6302;42.624;23.334;2023-08-01T06:58:00;3.30;;;2.80;;
12474;SDS011;6302;42.624;23.334;2023-08-01T07:00:27;9.15;;;3.35;;
12474;SDS011;6302;42.624;23.334;2023-08-01T07:02:54;3.80;;;3.30;;
12474;SDS011;6302;42.624;23.334;2023-08-01T07:05:22;4.53;;;3.13;;
12474;SDS011;6302;42.624;23.334;2023-08-01T07:07:50;4.30;;;3.10;;
12474;SDS011;6302;42.624;23.334;2023-08-01T07:10:17;4.83;;;2.77;;
12474;SDS011;6302;42.624;23.334;2023-08-01T07:12:44;6.47;;;3.33;;
12474;SDS011;6302;42.624;23.334;2023-08-01T07:15:11;4.27;;;3.40;;
12474;SDS011;6302;42.624;23.334;2023-08-01T07:17:38;3.67;;;3.03;;
12474;SDS011;6302;42.624;23.334;2023-08-01T07:20:05;3.95;;;3.47;;
12474;SDS011;6302;42.624;23.334;2023-08-01T07:22:34;4.73;;;3.40;;
12474;SDS011;6302;42.624;23.334;2023-08-01T07:25:01;5.07;;;3.10;;
12474;SDS011;6302;42.624;23.334;2023-08-01T07:27:28;4.05;;;2.80;;
12474;SDS011;6302;42.624;23.334;2023-08-01T07:29:54;3.35;;;3.00;;
12474;SDS011;6302;42.624;23.334;2023-08-01T07:32:21;5.07;;;3.00;;
12474;SDS011;6302;42.624;23.334;2023-08-01T07:34:48;5.45;;;3.35;;
12474;SDS011;6302;42.624;23.334;2023-08-01T07:37:15;4.03;;;3.67;;
12474;SDS011;6302;42.624;23.334;2023-08-01T07:39:43;5.03;;;3.40;;
12474;SDS011;6302;42.624;23.334;2023-08-01T07:42:09;4.17;;;3.83;;
12474;SDS011;6302;42.624;23.334;2023-08-01T07:44:36;7.87;;;3.53;;
12474;SDS011;6302;42.624;23.334;2023-08-01T07:47:03;4.97;;;3.40;;
12474;SDS011;6302;42.624;23.334;2023-08-01T07:49:30;3.88;;;3.25;;
12474;SDS011;6302;42.624;23.334;2023-08-01T07:51:57;5.40;;;3.28;;
12474;SDS011;6302;42.624;23.334;2023-08-01T07:54:24;11.23;;;3.90;;
12474;SDS011;6302;42.624;23.334;2023-08-01T07:56:52;6.30;;;3.30;;
12474;SDS011;6302;42.624;23.334;2023-08-01T07:59:19;7.77;;;3.50;;
12474;SDS011;6302;42.624;23.334;2023-08-01T08:01:46;4.70;;;3.05;;
12474;SDS011;6302;42.624;23.334;2023-08-01T08:04:13;6.37;;;3.23;;
12474;SDS011;6302;42.624;23.334;2023-08-01T08:06:40;4.57;;;3.72;;
12474;SDS011;6302;42.624;23.334;2023-08-01T08:09:07;3.20;;;2.90;;
12474;SDS011;6302;42.624;23.334;2023-08-01T08:11:36;10.20;;;4.25;;
12474;SDS011;6302;42.624;23.334;2023-08-01T08:14:05;5.20;;;3.40;;
12474;SDS011;6302;42.624;23.334;2023-08-01T08:16:31;11.95;;;3.55;;
12474;SDS011;6302;42.624;23.334;2023-08-01T08:18:58;5.45;;;3.45;;
12474;SDS011;6302;42.624;23.334;2023-08-01T08:21:29;5.53;;;3.67;;
12474;SDS011;6302;42.624;23.334;2023-08-01T08:23:55;6.38;;;4.10;;
12474;SDS011;6302;42.624;23.334;2023-08-01T08:26:22;7.35;;;3.83;;
12474;SDS011;6302;42.624;23.334;2023-08-01T08:28:49;6.53;;;3.53;;
12474;SDS011;6302;42.624;23.334;2023-08-01T08:31:17;5.32;;;3.65;;
12474;SDS011;6302;42.624;23.334;2023-08-01T08:33:44;6.00;;;3.45;;
12474;SDS011;6302;42.624;23.334;2023-08-01T08:36:11;5.57;;;3.50;;
12474;SDS011;6302;42.624;23.334;2023-08-01T08:38:37;6.38;;;3.47;;
12474;SDS011;6302;42.624;23.334;2023-08-01T08:41:08;7.50;;;4.30;;
12474;SDS011;6302;42.624;23.334;2023-08-01T08:43:36;4.50;;;3.47;;
12474;SDS011;6302;42.624;23.334;2023-08-01T08:46:04;5.40;;;4.38;;
12474;SDS011;6302;42.624;23.334;2023-08-01T08:48:33;6.93;;;4.70;;
12474;SDS011;6302;42.624;23.334;2023-08-01T08:51:01;6.47;;;4.10;;
12474;SDS011;6302;42.624;23.334;2023-08-01T08:53:28;6.60;;;4.28;;
12474;SDS011;6302;42.624;23.334;2023-08-01T08:55:58;10.18;;;4.00;;
12474;SDS011;6302;42.624;23.334;2023-08-01T08:58:26;5.55;;;3.72;;
12474;SDS011;6302;42.624;23.334;2023-08-01T09:00:53;6.40;;;4.40;;
12474;SDS011;6302;42.624;23.334;2023-08-01T09:03:20;5.78;;;4.03;;
12474;SDS011;6302;42.624;23.334;2023-08-01T09:05:50;6.28;;;4.82;;
12474;SDS011;6302;42.624;23.334;2023-08-01T09:08:21;10.55;;;4.43;;
12474;SDS011;6302;42.624;23.334;2023-08-01T09:10:50;4.57;;;3.70;;
12474;SDS011;6302;42.624;23.334;2023-08-01T09:13:17;4.90;;;3.92;;
12474;SDS011;6302;42.624;23.334;2023-08-01T09:15:46;5.10;;;3.70;;
12474;SDS011;6302;42.624;23.334;2023-08-01T09:18:14;9.02;;;3.72;;
12474;SDS011;6302;42.624;23.334;2023-08-01T09:20:41;5.28;;;3.72;;
12474;SDS011;6302;42.624;23.334;2023-08-01T09:23:10;4.72;;;3.90;;
12474;SDS011;6302;42.624;23.334;2023-08-01T09:25:37;5.13;;;3.90;;
12474;SDS011;6302;42.624;23.334;2023-08-01T09:28:14;4.28;;;3.85;;
12474;SDS011;6302;42.624;23.334;2023-08-01T09:30:46;5.75;;;3.95;;
12474;SDS011;6302;42.624;23.334;2023-08-01T09:33:13;5.68;;;3.63;;
12474;SDS011;6302;42.624;23.334;2023-08-01T09:35:40;3.95;;;3.50;;
12474;SDS011;6302;42.624;23.334;2023-08-01T09:38:10;3.70;;;3.40;;
12474;SDS011;6302;42.624;23.334;2023-08-01T09:40:39;5.03;;;4.35;;
12474;SDS011;6302;42.624;23.334;2023-08-01T09:43:06;4.80;;;3.72;;
12474;SDS011;6302;42.624;23.334;2023-08-01T09:45:33;5.57;;;4.00;;
12474;SDS011;6302;42.624;23.334;2023-08-01T09:48:01;6.32;;;3.60;;
12474;SDS011;6302;42.624;23.334;2023-08-01T09:50:28;7.97;;;4.18;;
12474;SDS011;6302;42.624;23.334;2023-08-01T09:53:06;5.18;;;4.10;;
12474;SDS011;6302;42.624;23.334;2023-08-01T09:55:35;6.45;;;3.97;;
12474;SDS011;6302;42.624;23.334;2023-08-01T09:58:03;4.55;;;3.90;;
12474;SDS011;6302;42.624;23.334;2023-08-01T10:00:31;4.68;;;4.28;;
12474;SDS011;6302;42.624;23.334;2023-08-01T10:02:59;4.60;;;3.92;;
12474;SDS011;6302;42.624;23.334;2023-08-01T10:05:26;5.28;;;4.18;;
12474;SDS011;6302;42.624;23.334;2023-08-01T10:07:57;4.28;;;3.72;;
12474;SDS011;6302;42.624;23.334;2023-08-01T10:10:26;5.57;;;4.38;;
12474;SDS011;6302;42.624;23.334;2023-08-01T10:12:55;4.30;;;3.65;;
12474;SDS011;6302;42.624;23.334;2023-08-01T10:15:23;7.38;;;4.05;;
12474;SDS011;6302;42.624;23.334;2023-08-01T10:17:50;6.53;;;3.97;;
12474;SDS011;6302;42.624;23.334;2023-08-01T10:20:17;7.25;;;4.25;;
12474;SDS011;6302;42.624;23.334;2023-08-01T10:22:47;7.00;;;4.25;;
12474;SDS011;6302;42.624;23.334;2023-08-01T10:25:15;4.90;;;3.63;;
12474;SDS011;6302;42.624;23.334;2023-08-01T10:27:43;8.75;;;4.43;;
12474;SDS011;6302;42.624;23.334;2023-08-01T10:30:11;5.93;;;4.22;;
12474;SDS011;6302;42.624;23.334;2023-08-01T10:32:38;6.13;;;4.00;;
12474;SDS011;6302;42.624;23.334;2023-08-01T10:35:07;8.68;;;4.70;;
12474;SDS011;6302;42.624;23.334;2023-08-01T10:37:40;6.20;;;4.28;;
12474;SDS011;6302;42.624;23.334;2023-08-01T10:40:07;4.18;;;3.83;;
12474;SDS011;6302;42.624;23.334;2023-08-01T10:42:38;4.78;;;3.90;;
12474;SDS011;6302;42.624;23.334;2023-08-01T10:45:06;5.53;;;4.55;;
12474;SDS011;6302;42.624;23.334;2023-08-01T10:47:35;5.90;;;3.70;;
12474;SDS011;6302;42.624;23.334;2023-08-01T10:50:01;5.97;;;4.07;;
12474;SDS011;6302;42.624;23.334;2023-08-01T10:52:39;4.75;;;3.83;;
12474;SDS011;6302;42.624;23.334;2023-08-01T10:55:06;10.50;;;4.30;;
12474;SDS011;6302;42.624;23.334;2023-08-01T10:57:34;5.70;;;3.78;;
12474;SDS011;6302;42.624;23.334;2023-08-01T11:00:03;4.75;;;4.30;;
12474;SDS011;6302;42.624;23.334;2023-08-01T11:02:36;13.10;;;4.60;;
12474;SDS011;6302;42.624;23.334;2023-08-01T11:05:04;4.75;;;4.35;;
12474;SDS011;6302;42.624;23.334;2023-08-01T11:07:32;7.07;;;3.80;;
12474;SDS011;6302;42.624;23.334;2023-08-01T11:10:03;6.85;;;4.10;;
12474;SDS011;6302;42.624;23.334;2023-08-01T11:12:33;5.63;;;4.05;;
12474;SDS011;6302;42.624;23.334;2023-08-01T11:15:01;5.63;;;4.00;;
12474;SDS011;6302;42.624;23.334;2023-08-01T11:17:28;5.30;;;4.18;;
12474;SDS011;6302;42.624;23.334;2023-08-01T11:20:01;3.90;;;3.60;;
12474;SDS011;6302;42.624;23.334;2023-08-01T11:22:29;4.70;;;3.75;;
12474;SDS011;6302;42.624;23.334;2023-08-01T11:24:56;3.80;;;3.45;;
12474;SDS011;6302;42.624;23.334;2023-08-01T11:27:23;5.75;;;3.90;;
12474;SDS011;6302;42.624;23.334;2023-08-01T11:29:50;3.95;;;3.58;;
12474;SDS011;6302;42.624;23.334;2023-08-01T11:32:17;5.95;;;3.90;;
12474;SDS011;6302;42.624;23.334;2023-08-01T11:34:46;3.72;;;3.38;;
12474;SDS011;6302;42.624;23.334;2023-08-01T11:37:14;3.53;;;3.22;;
12474;SDS011;6302;42.624;23.334;2023-08-01T11:39:45;3.47;;;3.10;;
12474;SDS011;6302;42.624;23.334;2023-08-01T11:42:14;3.72;;;3.15;;
12474;SDS011;6302;42.624;23.334;2023-08-01T11:44:42;5.32;;;3.50;;
12474;SDS011;6302;42.624;23.334;2023-08-01T11:47:12;7.85;;;3.60;;
12474;SDS011;6302;42.624;23.334;2023-08-01T11:49:44;3.45;;;3.03;;
12474;SDS011;6302;42.624;23.334;2023-08-01T11:52:22;5.20;;;3.05;;
12474;SDS011;6302;42.624;23.334;2023-08-01T11:54:50;4.88;;;3.58;;
12474;SDS011;6302;42.624;23.334;2023-08-01T11:57:17;3.65;;;3.15;;
12474;SDS011;6302;42.624;23.334;2023-08-01T11:59:47;4.35;;;3.30;;
12474;SDS011;6302;42.624;23.334;2023-08-01T12:02:21;4.25;;;3.50;;
12474;SDS011;6302;42.624;23.334;2023-08-01T12:04:49;3.75;;;3.42;;
12474;SDS011;6302;42.624;23.334;2023-08-01T12:07:16;3.75;;;3.35;;
12474;SDS011;6302;42.624;23.334;2023-08-01T12:09:44;4.43;;;3.60;;
12474;SDS011;6302;42.624;23.334;2023-08-01T12:12:20;4.78;;;3.42;;
12474;SDS011;6302;42.624;23.334;2023-08-01T12:14:47;4.32;;;3.40;;
12474;SDS011;6302;42.624;23.334;2023-08-01T12:17:14;9.13;;;3.50;;
12474;SDS011;6302;42.624;23.334;2023-08-01T12:19:41;3.90;;;3.08;;
12474;SDS011;6302;42.624;23.334;2023-08-01T12:22:08;4.22;;;3.30;;
12474;SDS011;6302;42.624;23.334;2023-08-01T12:24:34;3.50;;;3.17;;
12474;SDS011;6302;42.624;23.334;2023-08-01T12:27:04;4.22;;;3.08;;
12474;SDS011;6302;42.624;23.334;2023-08-01T12:29:31;3.45;;;3.15;;
12474;SDS011;6302;42.624;23.334;2023-08-01T12:31:58;5.15;;;3.53;;
12474;SDS011;6302;42.624;23.334;2023-08-01T12:34:25;4.63;;;3.17;;
12474;SDS011;6302;42.624;23.334;2023-08-01T12:36:52;5.00;;;3.13;;
12474;SDS011;6302;42.624;23.334;2023-08-01T12:39:18;4.30;;;3.30;;
12474;SDS011;6302;42.624;23.334;2023-08-01T12:41:45;4.22;;;3.83;;
12474;SDS011;6302;42.624;23.334;2023-08-01T12:44:14;4.00;;;3.58;;
12474;SDS011;6302;42.624;23.334;2023-08-01T12:46:42;3.50;;;3.20;;
12474;SDS011;6302;42.624;23.334;2023-08-01T12:49:09;7.97;;;3.35;;
12474;SDS011;6302;42.624;23.334;2023-08-01T12:51:36;4.47;;;3.55;;
12474;SDS011;6302;42.624;23.334;2023-08-01T12:54:02;4.05;;;2.85;;
12474;SDS011;6302;42.624;23.334;2023-08-01T12:56:29;4.18;;;3.28;;
12474;SDS011;6302;42.624;23.334;2023-08-01T12:58:56;3.53;;;3.22;;
12474;SDS011;6302;42.624;23.334;2023-08-01T13:01:24;5.07;;;2.97;;
12474;SDS011;6302;42.624;23.334;2023-08-01T13:03:51;4.05;;;3.10;;
12474;SDS011;6302;42.624;23.334;2023-08-01T13:06:18;4.30;;;3.08;;
12474;SDS011;6302;42.624;23.334;2023-08-01T13:08:45;3.80;;;3.40;;
12474;SDS011;6302;42.624;23.334;2023-08-01T13:11:12;4.22;;;2.80;;
12474;SDS011;6302;42.624;23.334;2023-08-01T13:13:40;3.78;;;3.47;;
12474;SDS011;6302;42.624;23.334;2023-08-01T13:16:08;5.35;;;3.38;;
12474;SDS011;6302;42.624;23.334;2023-08-01T13:18:36;2.97;;;2.72;;
12474;SDS011;6302;42.624;23.334;2023-08-01T13:21:08;5.38;;;3.13;;
12474;SDS011;6302;42.624;23.334;2023-08-01T13:23:35;3.55;;;2.97;;
12474;SDS011;6302;42.624;23.334;2023-08-01T13:26:02;4.55;;;2.97;;
12474;SDS011;6302;42.624;23.334;2023-08-01T13:28:29;3.20;;;2.90;;
12474;SDS011;6302;42.624;23.334;2023-08-01T13:30:55;3.20;;;2.58;;
12474;SDS011;6302;42.624;23.334;2023-08-01T13:33:25;3.70;;;2.90;;
12474;SDS011;6302;42.624;23.334;2023-08-01T13:35:53;4.50;;;2.83;;
12474;SDS011;6302;42.624;23.334;2023-08-01T13:38:20;3.20;;;2.83;;
12474;SDS011;6302;42.624;23.334;2023-08-01T13:40:47;5.30;;;2.72;;
12474;SDS011;6302;42.624;23.334;2023-08-01T13:43:13;6.60;;;3.20;;
12474;SDS011;6302;42.624;23.334;2023-08-01T13:45:40;5.57;;;3.10;;
12474;SDS011;6302;42.624;23.334;2023-08-01T13:48:07;3.08;;;2.78;;
12474;SDS011;6302;42.624;23.334;2023-08-01T13:50:34;2.88;;;2.60;;
12474;SDS011;6302;42.624;23.334;2023-08-01T13:53:02;3.88;;;2.85;;
12474;SDS011;6302;42.624;23.334;2023-08-01T13:55:32;4.10;;;2.78;;
12474;SDS011;6302;42.624;23.334;2023-08-01T13:57:59;6.38;;;2.88;;
12474;SDS011;6302;42.624;23.334;2023-08-01T14:00:25;2.60;;;2.40;;
12474;SDS011;6302;42.624;23.334;2023-08-01T14:02:52;3.05;;;2.45;;
12474;SDS011;6302;42.624;23.334;2023-08-01T14:05:19;2.78;;;2.53;;
12474;SDS011;6302;42.624;23.334;2023-08-01T14:07:46;3.53;;;2.70;;
12474;SDS011;6302;42.624;23.334;2023-08-01T14:10:14;2.88;;;2.42;;
12474;SDS011;6302;42.624;23.334;2023-08-01T14:12:41;3.10;;;2.53;;
12474;SDS011;6302;42.624;23.334;2023-08-01T14:15:08;2.92;;;2.30;;
12474;SDS011;6302;42.624;23.334;2023-08-01T14:17:35;2.85;;;2.40;;
12474;SDS011;6302;42.624;23.334;2023-08-01T14:20:03;3.60;;;2.50;;
12474;SDS011;6302;42.624;23.334;2023-08-01T14:22:30;4.47;;;2.67;;
12474;SDS011;6302;42.624;23.334;2023-08-01T14:24:57;2.70;;;2.50;;
12474;SDS011;6302;42.624;23.334;2023-08-01T14:27:25;2.63;;;2.40;;
12474;SDS011;6302;42.624;23.334;2023-08-01T14:29:52;2.60;;;2.40;;
12474;SDS011;6302;42.624;23.334;2023-08-01T14:32:19;5.05;;;2.90;;
12474;SDS011;6302;42.624;23.334;2023-08-01T14:34:46;5.43;;;2.28;;
12474;SDS011;6302;42.624;23.334;2023-08-01T14:37:13;6.03;;;2.88;;
12474;SDS011;6302;42.624;23.334;2023-08-01T14:39:40;4.95;;;2.80;;
12474;SDS011;6302;42.624;23.334;2023-08-01T14:42:06;2.97;;;2.28;;
12474;SDS011;6302;42.624;23.334;2023-08-01T14:44:34;2.85;;;2.40;;
12474;SDS011;6302;42.624;23.334;2023-08-01T14:47:01;2.65;;;2.45;;
12474;SDS011;6302;42.624;23.334;2023-08-01T14:49:28;2.78;;;2.58;;